Time;durP1;ratioP1;P1;durP2;ratioP2;P2;SDS_P1;SDS_P2;PMS_P1;PMS_P2;Temp;Humidity;BMP_temperature;BMP_pressure;BME280_temperature;BME280_humidity;BME280_pressure;Samples;Min_cycle;Max_cycle;Signal;HPM_P1;HPM_P2
2021/12/15 00:01:29;;;;;;;;;;;5.40;99.90;;;;;;5034793;28;20369;-73
2021/12/15 00:03:55;;;;;;;;;;;5.20;99.90;;;;;;5034886;28;19912;-73
2021/12/15 00:06:21;;;;;;;;;;;4.90;99.90;;;;;;5034674;28;19905;-73
2021/12/15 00:08:52;;;;;;;;;;;4.80;99.90;;;;;;5034737;28;20277;-73
2021/12/15 00:11:19;;;;;;;;;;;4.90;99.90;;;;;;5034731;28;19927;-72
2021/12/15 00:13:45;;;;;;;;;;;4.90;99.90;;;;;;5034620;28;19912;-72
2021/12/15 00:16:12;;;;;;;;;;;4.80;99.90;;;;;;5037571;22;20377;-75
2021/12/15 00:18:42;;;;;;;;;;;4.80;99.90;;;;;;4994795;28;19905;-77
2021/12/15 00:21:12;;;;;;;;;;;4.80;99.90;;;;;;4993888;28;19905;-74
2021/12/15 00:23:39;;;;;;;;;;;4.80;99.90;;;;;;4993869;28;20432;-74
2021/12/15 00:26:05;;;;;;;;;;;4.80;99.90;;;;;;4993551;28;20005;-77
2021/12/15 00:28:31;;;;;;;;;;;4.70;99.90;;;;;;4994126;28;20064;-74
2021/12/15 00:30:56;;;;;;;;;;;4.70;99.90;;;;;;4994867;28;19924;-74
2021/12/15 00:33:22;;;;;;;;;;;4.70;99.90;;;;;;4993477;28;19912;-74
2021/12/15 00:35:48;;;;;;;;;;;4.80;99.90;;;;;;4977176;28;20280;-77
2021/12/15 00:38:14;;;;;;;;;;;4.80;99.90;;;;;;4994492;28;19916;-77
2021/12/15 00:40:40;;;;;;;;;;;4.60;99.90;;;;;;4994782;28;19910;-77
2021/12/15 00:43:05;;;;;;;;;;;4.60;99.90;;;;;;4994649;28;19933;-74
2021/12/15 00:45:31;;;;;;;;;;;4.70;99.90;;;;;;4994408;28;20018;-74
2021/12/15 00:47:57;;;;;;;;;;;4.80;99.90;;;;;;4993525;28;19920;-74
2021/12/15 00:50:27;;;;;;;;;;;4.80;99.90;;;;;;4994462;28;19929;-74
2021/12/15 00:52:53;;;;;;;;;;;4.80;99.90;;;;;;4994592;28;20322;-77
2021/12/15 00:55:20;;;;;;;;;;;4.80;99.90;;;;;;4994517;28;19953;-77
2021/12/15 00:57:46;;;;;;;;;;;4.60;99.90;;;;;;4994264;28;20321;-74
2021/12/15 01:00:15;;;;;;;;;;;4.50;99.90;;;;;;4993404;28;19910;-74
2021/12/15 01:02:41;;;;;;;;;;;4.60;99.90;;;;;;4993370;28;20385;-77
2021/12/15 01:05:08;;;;;;;;;;;4.70;99.90;;;;;;4993312;28;19917;-74
2021/12/15 01:07:33;;;;;;;;;;;4.80;99.90;;;;;;4994320;28;19914;-74
2021/12/15 01:09:59;;;;;;;;;;;4.90;99.90;;;;;;4976838;28;19906;-74
2021/12/15 01:20:38;;;;;;;;;;;4.90;99.90;;;;;;4992722;28;20043;-75
2021/12/15 01:23:07;;;;;;;;;;;4.90;99.90;;;;;;4993961;28;19905;-77
2021/12/15 01:25:56;;;;;;;;;;;5.00;99.90;;;;;;4993686;28;19912;-77
2021/12/15 01:28:22;;;;;;;;;;;5.10;99.90;;;;;;4985536;28;19964;-74
2021/12/15 01:30:49;;;;;;;;;;;5.20;99.90;;;;;;4992526;28;19905;-77
2021/12/15 01:33:15;;;;;;;;;;;5.30;99.90;;;;;;4992628;28;19960;-74
2021/12/15 01:35:42;;;;;;;;;;;5.20;99.90;;;;;;4992272;28;19906;-74
2021/12/15 01:38:08;;;;;;;;;;;5.00;99.90;;;;;;4993617;28;20340;-77
2021/12/15 01:40:37;;;;;;;;;;;5.00;99.90;;;;;;4975987;28;19937;-77
2021/12/15 01:43:05;;;;;;;;;;;5.00;99.90;;;;;;4992348;28;19909;-74
2021/12/15 01:48:16;;;;;;;;;;;5.10;99.90;;;;;;4992003;28;20420;-77
2021/12/15 01:50:42;;;;;;;;;;;5.10;99.90;;;;;;4993615;28;19913;-77
2021/12/15 01:53:09;;;;;;;;;;;5.10;99.90;;;;;;4993908;28;19913;-75
2021/12/15 01:55:35;;;;;;;;;;;5.10;99.90;;;;;;4993511;28;19913;-74
2021/12/15 01:58:01;;;;;;;;;;;5.10;99.90;;;;;;4992049;28;19905;-74
2021/12/15 02:00:30;;;;;;;;;;;5.10;99.90;;;;;;4993297;28;20444;-74
2021/12/15 02:02:57;;;;;;;;;;;5.20;99.90;;;;;;4993303;28;19913;-75
2021/12/15 02:05:23;;;;;;;;;;;5.00;99.90;;;;;;4993259;28;20771;-74
2021/12/15 02:07:49;;;;;;;;;;;5.00;99.90;;;;;;4991811;28;19909;-77
2021/12/15 02:10:16;;;;;;;;;;;5.10;99.90;;;;;;4993269;28;20557;-76
2021/12/15 02:12:42;;;;;;;;;;;5.10;99.90;;;;;;4992014;28;19906;-74
2021/12/15 02:15:13;;;;;;;;;;;5.00;99.90;;;;;;4993158;28;19913;-75
2021/12/15 02:17:39;;;;;;;;;;;5.00;99.90;;;;;;4993014;28;20300;-75
2021/12/15 02:20:05;;;;;;;;;;;5.00;99.90;;;;;;4992073;28;19913;-75
2021/12/15 02:22:32;;;;;;;;;;;5.10;99.90;;;;;;4993180;28;20262;-74
2021/12/15 02:24:57;;;;;;;;;;;4.90;99.90;;;;;;4975784;28;19960;-74
2021/12/15 02:27:30;;;;;;;;;;;5.00;99.90;;;;;;4991538;28;19906;-77
2021/12/15 02:30:03;;;;;;;;;;;5.00;99.90;;;;;;4991913;28;19913;-77
2021/12/15 02:32:49;;;;;;;;;;;5.10;99.90;;;;;;4992962;28;20403;-76
2021/12/15 02:38:31;;;;;;;;;;;5.10;99.90;;;;;;4935926;29;19923;-77
2021/12/15 02:41:05;;;;;;;;;;;5.20;99.90;;;;;;4951863;28;19997;-74
2021/12/15 02:43:31;;;;;;;;;;;5.20;99.90;;;;;;4959866;28;19905;-74
2021/12/15 02:45:57;;;;;;;;;;;5.30;99.90;;;;;;4992818;28;19910;-74
2021/12/15 02:48:23;;;;;;;;;;;5.30;99.90;;;;;;4975200;28;19916;-75
2021/12/15 02:50:48;;;;;;;;;;;5.20;99.90;;;;;;4993169;28;19906;-74
2021/12/15 02:53:14;;;;;;;;;;;5.10;99.90;;;;;;4996842;28;19953;-75
2021/12/15 02:55:39;;;;;;;;;;;5.20;99.90;;;;;;4996654;28;19906;-75
2021/12/15 02:58:06;;;;;;;;;;;5.00;99.90;;;;;;4996676;28;19910;-77
2021/12/15 03:00:46;;;;;;;;;;;5.00;99.90;;;;;;4979023;28;19944;-77
2021/12/15 03:03:55;;;;;;;;;;;5.00;99.90;;;;;;4995375;28;20684;-77
2021/12/15 03:06:21;;;;;;;;;;;4.80;99.90;;;;;;4996185;28;19906;-77
2021/12/15 03:09:01;;;;;;;;;;;4.80;99.90;;;;;;4996429;28;19920;-74
2021/12/15 03:16:56;;;;;;;;;;;4.80;99.90;;;;;;4996172;28;20396;-76
2021/12/15 03:19:22;;;;;;;;;;;4.80;99.90;;;;;;4995108;28;19906;-75
2021/12/15 03:21:48;;;;;;;;;;;4.70;99.90;;;;;;4996127;28;19952;-75
2021/12/15 03:24:18;;;;;;;;;;;4.60;99.90;;;;;;4996208;28;19906;-74
2021/12/15 03:27:00;;;;;;;;;;;4.60;99.90;;;;;;4996523;28;19993;-77
2021/12/15 03:37:28;;;;;;;;;;;4.40;99.90;;;;;;4995731;28;19906;-77
2021/12/15 03:40:15;;;;;;;;;;;4.40;99.90;;;;;;4995910;28;19996;-74
2021/12/15 03:42:43;;;;;;;;;;;4.50;99.90;;;;;;4985773;28;20369;-75
2021/12/15 03:45:13;;;;;;;;;;;4.40;99.90;;;;;;4995899;28;19909;-75
2021/12/15 03:47:40;;;;;;;;;;;4.30;99.90;;;;;;4995357;28;19916;-75
2021/12/15 03:50:07;;;;;;;;;;;4.20;99.90;;;;;;4995757;28;19906;-75
2021/12/15 03:52:34;;;;;;;;;;;4.30;99.90;;;;;;4994343;28;19917;-75
2021/12/15 03:55:00;;;;;;;;;;;4.30;99.90;;;;;;4995594;28;19912;-75
2021/12/15 03:57:25;;;;;;;;;;;4.50;99.90;;;;;;4994050;28;19912;-75
2021/12/15 03:59:52;;;;;;;;;;;4.70;99.90;;;;;;4994332;28;19992;-75
2021/12/15 04:02:18;;;;;;;;;;;4.70;99.90;;;;;;4994697;28;20029;-75
2021/12/15 04:04:45;;;;;;;;;;;4.70;99.90;;;;;;4995048;28;19913;-75
2021/12/15 04:07:11;;;;;;;;;;;4.60;99.90;;;;;;4993896;28;19912;-75
2021/12/15 04:09:38;;;;;;;;;;;4.60;99.90;;;;;;4995244;28;19941;-75
2021/12/15 04:12:04;;;;;;;;;;;4.70;99.90;;;;;;4994001;28;19905;-75
2021/12/15 04:14:40;;;;;;;;;;;4.90;99.90;;;;;;4995292;28;19912;-75
2021/12/15 04:17:17;;;;;;;;;;;5.00;99.90;;;;;;4993914;28;19920;-75
2021/12/15 04:19:43;;;;;;;;;;;5.00;99.90;;;;;;4993850;28;19906;-75
2021/12/15 04:22:09;;;;;;;;;;;5.10;99.90;;;;;;4995065;28;19940;-75
2021/12/15 04:24:35;;;;;;;;;;;5.20;99.90;;;;;;4995034;28;19910;-75
2021/12/15 04:27:00;;;;;;;;;;;5.20;99.90;;;;;;4994924;28;19906;-75
2021/12/15 04:29:28;;;;;;;;;;;5.20;99.90;;;;;;4994902;28;20066;-76
2021/12/15 04:31:56;;;;;;;;;;;5.30;99.90;;;;;;4977381;28;19906;-75
2021/12/15 04:34:21;;;;;;;;;;;5.30;99.90;;;;;;4994886;28;19906;-75
2021/12/15 04:36:49;;;;;;;;;;;5.30;99.90;;;;;;4994741;28;20433;-75
2021/12/15 04:39:16;;;;;;;;;;;5.30;99.90;;;;;;4993630;28;19912;-75
2021/12/15 04:41:47;;;;;;;;;;;5.20;99.90;;;;;;4993512;28;19913;-75
2021/12/15 04:44:13;;;;;;;;;;;5.10;99.90;;;;;;4995017;28;20332;-76
2021/12/15 04:46:40;;;;;;;;;;;5.00;99.90;;;;;;4993577;28;19963;-73
2021/12/15 04:49:07;;;;;;;;;;;5.00;99.90;;;;;;4994891;28;19910;-73
2021/12/15 04:51:33;;;;;;;;;;;5.10;99.90;;;;;;4994458;28;19913;-73
2021/12/15 04:53:59;;;;;;;;;;;5.10;99.90;;;;;;4993175;28;19906;-74
2021/12/15 04:56:25;;;;;;;;;;;5.10;99.90;;;;;;4994246;28;19906;-74
2021/12/15 04:58:51;;;;;;;;;;;5.00;99.90;;;;;;4994331;28;19949;-73
2021/12/15 05:01:17;;;;;;;;;;;4.80;99.90;;;;;;4994236;28;19905;-74
2021/12/15 05:03:43;;;;;;;;;;;4.80;99.90;;;;;;4976941;28;19916;-73
2021/12/15 05:06:09;;;;;;;;;;;4.60;99.90;;;;;;4992904;28;19937;-73
2021/12/15 05:08:36;;;;;;;;;;;4.50;99.90;;;;;;4994198;28;19952;-73
2021/12/15 05:11:02;;;;;;;;;;;4.50;99.90;;;;;;4994111;28;19905;-73
2021/12/15 05:13:28;;;;;;;;;;;4.60;99.90;;;;;;4993921;28;20396;-74
2021/12/15 05:15:54;;;;;;;;;;;4.70;99.90;;;;;;4993635;28;19906;-73
2021/12/15 05:18:20;;;;;;;;;;;4.70;99.90;;;;;;4994144;28;19953;-73
2021/12/15 05:20:49;;;;;;;;;;;4.60;99.90;;;;;;4992801;28;20376;-74
2021/12/15 05:23:16;;;;;;;;;;;4.70;99.90;;;;;;4992877;28;19912;-74
2021/12/15 05:25:42;;;;;;;;;;;4.70;99.90;;;;;;4992632;28;19907;-74
2021/12/15 05:28:08;;;;;;;;;;;4.70;99.90;;;;;;4993775;28;19909;-74
2021/12/15 05:30:34;;;;;;;;;;;4.70;99.90;;;;;;4994006;28;19912;-74
2021/12/15 05:33:00;;;;;;;;;;;4.70;99.90;;;;;;4993982;28;19905;-74
2021/12/15 05:35:26;;;;;;;;;;;4.70;99.90;;;;;;4992581;28;19913;-73
2021/12/15 05:37:53;;;;;;;;;;;4.80;99.90;;;;;;4993726;28;19905;-74
2021/12/15 05:40:19;;;;;;;;;;;4.80;99.90;;;;;;4992450;28;19992;-74
2021/12/15 05:42:45;;;;;;;;;;;4.60;99.90;;;;;;4993799;28;19910;-74
2021/12/15 05:45:11;;;;;;;;;;;4.50;99.90;;;;;;4993987;28;20297;-73
2021/12/15 05:47:37;;;;;;;;;;;4.60;99.90;;;;;;4992054;28;19976;-74
2021/12/15 05:50:05;;;;;;;;;;;4.60;99.90;;;;;;4992501;28;20009;-74
2021/12/15 05:52:31;;;;;;;;;;;4.60;99.90;;;;;;4993673;28;19906;-74
2021/12/15 05:54:57;;;;;;;;;;;4.50;99.90;;;;;;4993782;28;19910;-74
2021/12/15 05:57:23;;;;;;;;;;;4.50;99.90;;;;;;4992153;28;19945;-74
2021/12/15 05:59:48;;;;;;;;;;;4.50;99.90;;;;;;4993549;28;19992;-74
2021/12/15 06:02:14;;;;;;;;;;;4.50;99.90;;;;;;4992526;28;20268;-74
2021/12/15 06:04:40;;;;;;;;;;;4.70;99.90;;;;;;4993586;28;19914;-74
2021/12/15 06:07:05;;;;;;;;;;;4.70;99.90;;;;;;4993147;28;19906;-74
2021/12/15 06:09:32;;;;;;;;;;;4.70;99.90;;;;;;4992075;28;20074;-73
2021/12/15 06:11:58;;;;;;;;;;;4.80;99.90;;;;;;4993357;28;20373;-74
2021/12/15 06:14:26;;;;;;;;;;;4.80;99.90;;;;;;4993796;28;20004;-74
2021/12/15 06:16:54;;;;;;;;;;;4.80;99.90;;;;;;5072037;23;19922;-78
2021/12/15 06:19:19;;;;;;;;;;;4.90;99.90;;;;;;5013833;28;19905;-78
2021/12/15 06:21:45;;;;;;;;;;;4.80;99.90;;;;;;5013774;28;19943;-79
2021/12/15 06:24:11;;;;;;;;;;;4.80;99.90;;;;;;4979982;28;20362;-78
2021/12/15 06:26:37;;;;;;;;;;;4.90;99.90;;;;;;4995310;28;20380;-78
2021/12/15 06:29:02;;;;;;;;;;;4.90;99.90;;;;;;4995820;28;20427;-76
2021/12/15 06:31:28;;;;;;;;;;;4.90;99.90;;;;;;5012720;28;19905;-76
2021/12/15 06:33:54;;;;;;;;;;;5.00;99.90;;;;;;4995116;28;19906;-76
2021/12/15 06:36:21;;;;;;;;;;;4.90;99.90;;;;;;4994875;28;19955;-76
2021/12/15 06:38:48;;;;;;;;;;;4.80;99.90;;;;;;4995025;28;20399;-76
2021/12/15 06:41:14;;;;;;;;;;;4.80;99.90;;;;;;4994788;28;19905;-76
2021/12/15 06:43:43;;;;;;;;;;;4.80;99.90;;;;;;4994301;28;19912;-76
2021/12/15 06:46:46;;;;;;;;;;;4.90;99.90;;;;;;5011970;28;19905;-76
2021/12/15 07:00:09;;;;;;;;;;;4.80;99.90;;;;;;5012352;28;20269;-76
2021/12/15 07:02:34;;;;;;;;;;;4.90;99.90;;;;;;5012171;28;19913;-76
2021/12/15 07:05:00;;;;;;;;;;;4.90;99.90;;;;;;5012469;28;20361;-76
2021/12/15 07:07:47;;;;;;;;;;;4.90;99.90;;;;;;4997551;28;19909;-76
2021/12/15 07:10:16;;;;;;;;;;;5.00;99.90;;;;;;4994452;28;19905;-76
2021/12/15 07:12:41;;;;;;;;;;;5.20;99.90;;;;;;4994461;28;19916;-76
2021/12/15 07:15:08;;;;;;;;;;;5.00;99.90;;;;;;4994441;28;19909;-76
2021/12/15 07:17:36;;;;;;;;;;;4.90;99.90;;;;;;4994770;28;19913;-76
2021/12/15 07:25:07;;;;;;;;;;;5.00;99.90;;;;;;5011965;28;19910;-76
2021/12/15 07:27:33;;;;;;;;;;;5.10;99.90;;;;;;4978047;28;20012;-76
2021/12/15 07:30:00;;;;;;;;;;;5.20;99.90;;;;;;4994320;28;20385;-76
2021/12/15 07:32:25;;;;;;;;;;;5.30;99.90;;;;;;5012011;28;19905;-76
2021/12/15 07:34:51;;;;;;;;;;;5.20;99.90;;;;;;5011600;28;20338;-76
2021/12/15 07:37:16;;;;;;;;;;;5.10;99.90;;;;;;4994976;28;20411;-76
2021/12/15 07:39:53;;;;;;;;;;;5.00;99.90;;;;;;4997851;28;19959;-75
2021/12/15 07:42:29;;;;;;;;;;;5.00;99.90;;;;;;5015333;28;19912;-76
2021/12/15 07:44:55;;;;;;;;;;;5.10;99.90;;;;;;5015421;28;20371;-77
2021/12/15 07:47:21;;;;;;;;;;;5.10;99.90;;;;;;4997559;28;19913;-76
2021/12/15 07:49:47;;;;;;;;;;;5.00;99.90;;;;;;4997557;28;19916;-75
2021/12/15 07:52:12;;;;;;;;;;;4.90;99.90;;;;;;4997700;28;19905;-76
2021/12/15 07:54:38;;;;;;;;;;;4.90;99.90;;;;;;4996674;28;19909;-77
2021/12/15 07:57:16;;;;;;;;;;;5.00;99.90;;;;;;4995670;28;19909;-76
2021/12/15 07:59:42;;;;;;;;;;;5.00;99.90;;;;;;5013367;28;19909;-76
2021/12/15 08:02:08;;;;;;;;;;;5.10;99.90;;;;;;5012622;28;20369;-76
2021/12/15 08:04:34;;;;;;;;;;;5.10;99.90;;;;;;4996585;28;19979;-76
2021/12/15 08:06:59;;;;;;;;;;;5.20;99.90;;;;;;5014037;28;19910;-76
2021/12/15 08:09:25;;;;;;;;;;;5.20;99.90;;;;;;4997880;28;19909;-76
2021/12/15 08:11:51;;;;;;;;;;;5.30;99.90;;;;;;4997839;28;19941;-77
2021/12/15 08:14:17;;;;;;;;;;;5.30;99.90;;;;;;4981712;28;20272;-76
2021/12/15 08:16:43;;;;;;;;;;;5.40;99.90;;;;;;5013237;28;19913;-76
2021/12/15 08:19:14;;;;;;;;;;;5.50;99.90;;;;;;4996566;28;20353;-76
2021/12/15 08:21:40;;;;;;;;;;;5.50;99.90;;;;;;4997235;28;19963;-76
2021/12/15 08:24:05;;;;;;;;;;;5.50;99.90;;;;;;4996857;28;19905;-76
2021/12/15 08:26:31;;;;;;;;;;;5.40;99.90;;;;;;4996182;28;19909;-77
2021/12/15 08:28:57;;;;;;;;;;;5.30;99.90;;;;;;4983530;28;19909;-77
2021/12/15 08:31:22;;;;;;;;;;;5.40;99.90;;;;;;5013660;28;19905;-77
2021/12/15 08:33:48;;;;;;;;;;;5.40;99.90;;;;;;5000981;28;19906;-77
2021/12/15 08:36:14;;;;;;;;;;;5.40;99.90;;;;;;5013634;28;19906;-77
2021/12/15 08:38:41;;;;;;;;;;;5.40;99.90;;;;;;5008599;28;19928;-77
2021/12/15 08:41:18;;;;;;;;;;;5.50;99.90;;;;;;5005541;28;19953;-77
2021/12/15 08:43:43;;;;;;;;;;;5.50;99.90;;;;;;5013326;28;19909;-77
2021/12/15 08:46:11;;;;;;;;;;;5.60;99.90;;;;;;5014838;28;20451;-77
2021/12/15 08:48:37;;;;;;;;;;;5.50;99.90;;;;;;4988558;28;20014;-77
2021/12/15 08:51:05;;;;;;;;;;;5.60;99.90;;;;;;4991286;28;20007;-77
2021/12/15 08:53:31;;;;;;;;;;;5.50;99.90;;;;;;4999647;28;19949;-77
2021/12/15 08:55:56;;;;;;;;;;;5.40;99.90;;;;;;5013372;28;19998;-77
2021/12/15 08:58:22;;;;;;;;;;;5.40;99.90;;;;;;5002361;28;20353;-77
2021/12/15 09:00:50;;;;;;;;;;;5.40;99.90;;;;;;4991153;28;19909;-76
2021/12/15 09:03:16;;;;;;;;;;;5.50;99.90;;;;;;5005593;28;19920;-77
2021/12/15 09:05:43;;;;;;;;;;;5.40;99.90;;;;;;5005202;28;19905;-79
2021/12/15 09:08:09;;;;;;;;;;;5.30;99.90;;;;;;5012557;28;19913;-77
2021/12/15 09:10:36;;;;;;;;;;;5.40;99.90;;;;;;5008442;28;19968;-77
2021/12/15 09:13:04;;;;;;;;;;;5.20;99.90;;;;;;5002112;28;19905;-77
2021/12/15 09:15:29;;;;;;;;;;;5.20;99.90;;;;;;5012998;28;19911;-77
2021/12/15 09:17:55;;;;;;;;;;;5.10;99.90;;;;;;4999467;28;20378;-77
2021/12/15 09:20:23;;;;;;;;;;;5.20;99.90;;;;;;4986320;28;19917;-78
2021/12/15 09:22:49;;;;;;;;;;;5.20;99.90;;;;;;5012579;28;19906;-78
2021/12/15 09:25:15;;;;;;;;;;;5.10;99.90;;;;;;5007403;28;20060;-76
2021/12/15 09:27:42;;;;;;;;;;;5.40;99.90;;;;;;5012846;28;20353;-78
2021/12/15 09:30:09;;;;;;;;;;;5.40;99.90;;;;;;5006100;28;19929;-77
2021/12/15 09:32:35;;;;;;;;;;;5.50;99.90;;;;;;4995135;28;20339;-78
2021/12/15 09:35:02;;;;;;;;;;;5.50;99.90;;;;;;5012947;28;19983;-77
2021/12/15 09:37:28;;;;;;;;;;;5.60;99.90;;;;;;4979179;28;19932;-77
2021/12/15 09:39:55;;;;;;;;;;;5.50;99.90;;;;;;5004461;28;19912;-77
2021/12/15 09:42:25;;;;;;;;;;;5.50;99.90;;;;;;4997116;28;20373;-77
2021/12/15 09:44:57;;;;;;;;;;;5.50;99.90;;;;;;5000986;28;19906;-77
2021/12/15 09:47:49;;;;;;;;;;;5.60;99.90;;;;;;4985853;28;20361;-77
2021/12/15 10:12:34;;;;;;;;;;;5.60;99.90;;;;;;5012199;28;19948;-77
2021/12/15 10:17:53;;;;;;;;;;;5.80;99.90;;;;;;4994673;28;19928;-77
2021/12/15 10:20:20;;;;;;;;;;;5.90;99.90;;;;;;4995555;28;19912;-77
2021/12/15 10:22:48;;;;;;;;;;;5.90;99.90;;;;;;5009169;28;19956;-77
2021/12/15 10:25:25;;;;;;;;;;;5.90;99.90;;;;;;5012131;28;19912;-77
2021/12/15 10:27:57;;;;;;;;;;;5.80;99.90;;;;;;5012019;28;19909;-77
2021/12/15 10:30:43;;;;;;;;;;;5.90;99.90;;;;;;5005931;28;19905;-77
2021/12/15 10:33:15;;;;;;;;;;;5.90;99.90;;;;;;5012143;28;19912;-77
2021/12/15 10:35:45;;;;;;;;;;;5.90;99.90;;;;;;4994353;28;19928;-77
2021/12/15 10:38:18;;;;;;;;;;;5.80;99.90;;;;;;5011810;28;19909;-77
2021/12/15 10:40:44;;;;;;;;;;;5.90;99.90;;;;;;4989743;28;19960;-77
2021/12/15 10:43:10;;;;;;;;;;;5.70;99.90;;;;;;5010852;28;20008;-77
2021/12/15 10:45:40;;;;;;;;;;;5.80;99.90;;;;;;4989318;28;20384;-77
2021/12/15 10:48:14;;;;;;;;;;;5.80;99.90;;;;;;5011879;28;19952;-77
2021/12/15 10:50:40;;;;;;;;;;;5.70;99.90;;;;;;5011416;28;20357;-77
2021/12/15 10:53:06;;;;;;;;;;;5.60;99.90;;;;;;5011782;28;19948;-77
2021/12/15 10:55:34;;;;;;;;;;;5.60;99.90;;;;;;4996078;28;19929;-75
2021/12/15 10:58:00;;;;;;;;;;;5.70;99.90;;;;;;5000237;28;19905;-77
2021/12/15 11:00:32;;;;;;;;;;;5.80;99.90;;;;;;5000002;28;19956;-76
2021/12/15 11:03:05;;;;;;;;;;;5.80;99.90;;;;;;4977983;28;19956;-77
2021/12/15 11:05:33;;;;;;;;;;;5.80;99.90;;;;;;4990801;28;19906;-79
2021/12/15 11:07:59;;;;;;;;;;;5.80;99.90;;;;;;5010928;28;19909;-76
2021/12/15 11:10:31;;;;;;;;;;;5.70;99.90;;;;;;5000603;28;19927;-77
2021/12/15 11:12:57;;;;;;;;;;;5.60;99.90;;;;;;5005884;28;20403;-77
2021/12/15 11:15:29;;;;;;;;;;;5.40;99.90;;;;;;4982564;28;19993;-77
2021/12/15 11:17:56;;;;;;;;;;;5.40;99.90;;;;;;4989736;28;19913;-77
2021/12/15 11:20:26;;;;;;;;;;;5.50;99.90;;;;;;5004385;28;19953;-77
2021/12/15 11:23:00;;;;;;;;;;;5.60;99.90;;;;;;5008328;28;19941;-76
2021/12/15 11:25:34;;;;;;;;;;;5.50;99.90;;;;;;5000408;28;19928;-77
2021/12/15 11:28:04;;;;;;;;;;;5.60;99.90;;;;;;5014723;28;20016;-77
2021/12/15 11:30:34;;;;;;;;;;;5.70;99.90;;;;;;5011631;28;20396;-77
2021/12/15 11:33:02;;;;;;;;;;;5.70;99.90;;;;;;5013637;28;19905;-77
2021/12/15 11:35:31;;;;;;;;;;;5.70;99.90;;;;;;5014194;28;19906;-77
2021/12/15 11:38:16;;;;;;;;;;;5.70;99.90;;;;;;5007307;28;19916;-77
2021/12/15 11:40:48;;;;;;;;;;;5.80;99.90;;;;;;5012898;28;19905;-77
2021/12/15 11:43:28;;;;;;;;;;;5.90;99.90;;;;;;5001099;28;20376;-77
2021/12/15 11:45:53;;;;;;;;;;;5.90;99.90;;;;;;5003321;28;19960;-77
2021/12/15 11:48:21;;;;;;;;;;;6.00;99.90;;;;;;5003896;28;19988;-77
2021/12/15 11:50:48;;;;;;;;;;;5.90;99.90;;;;;;5013537;28;19948;-77
2021/12/15 11:53:21;;;;;;;;;;;5.80;99.90;;;;;;5013904;28;19906;-77
2021/12/15 11:55:48;;;;;;;;;;;5.80;99.90;;;;;;4997128;28;20618;-77
2021/12/15 11:58:13;;;;;;;;;;;5.90;99.90;;;;;;4991926;28;19913;-77
2021/12/15 12:00:39;;;;;;;;;;;5.90;99.90;;;;;;5003278;28;20339;-77
2021/12/15 12:03:04;;;;;;;;;;;5.80;99.90;;;;;;5003374;28;20013;-76
2021/12/15 12:05:32;;;;;;;;;;;5.70;99.90;;;;;;5013717;28;19912;-77
2021/12/15 12:07:59;;;;;;;;;;;5.80;99.90;;;;;;5010011;28;19920;-76
2021/12/15 12:10:32;;;;;;;;;;;5.50;99.90;;;;;;5013493;28;20276;-77
2021/12/15 12:13:06;;;;;;;;;;;5.60;99.90;;;;;;4991364;28;19910;-77
2021/12/15 12:15:33;;;;;;;;;;;5.60;99.90;;;;;;5010215;28;19921;-77
2021/12/15 12:20:31;;;;;;;;;;;5.70;99.90;;;;;;5008844;28;19945;-75
2021/12/15 12:22:57;;;;;;;;;;;5.70;99.90;;;;;;4977401;28;19906;-75
2021/12/15 12:25:29;;;;;;;;;;;5.70;99.90;;;;;;4978639;28;20304;-76
2021/12/15 12:27:56;;;;;;;;;;;5.80;99.90;;;;;;5014157;28;19913;-77
2021/12/15 12:30:33;;;;;;;;;;;5.70;99.90;;;;;;4996384;28;19920;-76
2021/12/15 12:32:59;;;;;;;;;;;5.70;99.90;;;;;;5013204;28;19941;-76
2021/12/15 12:35:28;;;;;;;;;;;5.70;99.90;;;;;;4986492;28;20019;-76
2021/12/15 12:37:58;;;;;;;;;;;5.80;99.90;;;;;;5013838;28;19981;-76
2021/12/15 12:40:27;;;;;;;;;;;5.80;99.90;;;;;;4995034;28;19905;-76
2021/12/15 12:42:53;;;;;;;;;;;5.80;99.90;;;;;;5008322;28;20036;-76
2021/12/15 12:45:19;;;;;;;;;;;5.70;99.90;;;;;;5012163;28;19953;-76
2021/12/15 12:48:03;;;;;;;;;;;5.60;99.90;;;;;;5012378;28;19905;-76
2021/12/15 12:51:07;;;;;;;;;;;5.60;99.90;;;;;;5011351;28;19905;-76
2021/12/15 12:59:24;;;;;;;;;;;5.80;99.90;;;;;;5010167;28;20000;-77
2021/12/15 13:01:50;;;;;;;;;;;5.70;99.90;;;;;;4983317;28;19913;-76
2021/12/15 13:04:16;;;;;;;;;;;5.70;99.90;;;;;;4993979;28;19913;-76
2021/12/15 13:06:43;;;;;;;;;;;5.60;99.90;;;;;;4994740;28;19944;-76
2021/12/15 13:09:11;;;;;;;;;;;5.60;99.90;;;;;;4995076;28;19909;-76
2021/12/15 13:11:38;;;;;;;;;;;5.50;99.90;;;;;;4995043;28;19909;-77
2021/12/15 13:14:04;;;;;;;;;;;5.40;99.90;;;;;;4996273;28;20028;-76
2021/12/15 13:16:38;;;;;;;;;;;5.50;99.90;;;;;;5012548;28;19909;-77
2021/12/15 13:19:12;;;;;;;;;;;5.50;99.90;;;;;;5012579;28;19913;-77
2021/12/15 13:21:45;;;;;;;;;;;5.50;99.90;;;;;;4990428;28;19905;-77
2021/12/15 13:28:40;;;;;;;;;;;5.60;99.90;;;;;;4981168;28;20033;-77
2021/12/15 13:30:02;;;;;;;;;;;5.70;99.90;;;;;;5009692;28;20385;-77
2021/12/15 13:32:30;;;;;;;;;;;5.60;99.90;;;;;;5011765;28;19905;-77
2021/12/15 13:34:56;;;;;;;;;;;5.60;99.90;;;;;;5012207;28;19971;-76
2021/12/15 13:37:40;;;;;;;;;;;5.50;99.90;;;;;;4994334;28;19925;-76
2021/12/15 13:40:10;;;;;;;;;;;5.70;99.90;;;;;;5007681;28;19906;-76
2021/12/15 13:42:38;;;;;;;;;;;5.70;99.90;;;;;;5011793;28;19951;-77
2021/12/15 13:45:03;;;;;;;;;;;5.60;99.90;;;;;;4995400;28;19905;-76
2021/12/15 13:47:29;;;;;;;;;;;5.50;99.90;;;;;;5012095;28;20391;-74
2021/12/15 13:49:59;;;;;;;;;;;5.40;99.90;;;;;;5010993;28;19909;-74
2021/12/15 13:52:44;;;;;;;;;;;5.50;99.90;;;;;;5012034;28;20300;-74
2021/12/15 13:55:20;;;;;;;;;;;5.60;99.90;;;;;;5010378;28;19905;-74
2021/12/15 13:57:45;;;;;;;;;;;5.60;99.90;;;;;;4994003;28;20358;-74
2021/12/15 14:00:15;;;;;;;;;;;5.60;99.90;;;;;;5012275;28;19916;-74
2021/12/15 14:02:52;;;;;;;;;;;5.60;99.90;;;;;;4994424;28;20056;-75
2021/12/15 14:05:17;;;;;;;;;;;5.60;99.90;;;;;;5012180;28;19947;-74
2021/12/15 14:07:44;;;;;;;;;;;5.50;99.90;;;;;;5011914;28;19945;-74
2021/12/15 14:10:11;;;;;;;;;;;5.50;99.90;;;;;;4994865;28;19963;-73
2021/12/15 14:12:46;;;;;;;;;;;5.40;99.90;;;;;;5000488;28;20000;-73
2021/12/15 14:15:11;;;;;;;;;;;5.40;99.90;;;;;;5007219;28;19909;-73
2021/12/15 14:17:37;;;;;;;;;;;5.40;99.90;;;;;;5011194;28;19913;-73
2021/12/15 14:20:10;;;;;;;;;;;5.60;99.90;;;;;;4994061;28;19959;-73
2021/12/15 14:22:36;;;;;;;;;;;5.60;99.90;;;;;;4994201;28;19948;-73
2021/12/15 14:25:02;;;;;;;;;;;5.60;99.90;;;;;;5010522;28;20368;-73
2021/12/15 14:27:28;;;;;;;;;;;5.60;99.90;;;;;;4993416;28;19968;-74
2021/12/15 14:29:54;;;;;;;;;;;5.80;99.90;;;;;;5011611;28;19909;-74
2021/12/15 14:32:20;;;;;;;;;;;5.80;99.90;;;;;;4994169;28;19913;-74
2021/12/15 14:34:46;;;;;;;;;;;5.80;99.90;;;;;;5012157;28;19987;-76
2021/12/15 14:37:15;;;;;;;;;;;5.80;99.90;;;;;;5011059;28;19997;-76
2021/12/15 14:39:43;;;;;;;;;;;5.80;99.90;;;;;;4994226;28;19909;-76
2021/12/15 14:42:10;;;;;;;;;;;5.60;99.90;;;;;;4993680;28;19906;-75
2021/12/15 14:44:38;;;;;;;;;;;5.50;99.90;;;;;;4993239;28;19905;-75
2021/12/15 14:47:05;;;;;;;;;;;5.40;99.90;;;;;;5012183;28;19913;-74
2021/12/15 14:49:33;;;;;;;;;;;5.20;99.90;;;;;;5015093;28;19913;-73
2021/12/15 14:52:07;;;;;;;;;;;5.20;99.90;;;;;;5015417;28;19913;-73
2021/12/15 14:54:33;;;;;;;;;;;5.30;99.90;;;;;;5014848;28;19905;-74
2021/12/15 14:57:04;;;;;;;;;;;5.20;99.90;;;;;;4998183;28;20266;-74
2021/12/15 14:59:32;;;;;;;;;;;5.10;99.90;;;;;;5014080;28;20604;-74
2021/12/15 15:02:07;;;;;;;;;;;5.20;99.90;;;;;;5014693;28;20361;-74
2021/12/15 15:04:33;;;;;;;;;;;5.40;99.90;;;;;;5015089;28;19928;-73
2021/12/15 15:07:02;;;;;;;;;;;5.40;99.90;;;;;;5015277;28;19906;-73
2021/12/15 15:09:32;;;;;;;;;;;5.50;99.90;;;;;;5014954;28;19915;-74
2021/12/15 15:12:00;;;;;;;;;;;5.50;99.90;;;;;;4993116;28;19999;-73
2021/12/15 15:14:28;;;;;;;;;;;5.50;99.90;;;;;;4997239;28;20424;-74
2021/12/15 15:16:53;;;;;;;;;;;5.50;99.90;;;;;;5015101;28;19905;-75
2021/12/15 15:19:19;;;;;;;;;;;5.40;99.90;;;;;;5015075;28;19919;-75
2021/12/15 15:21:45;;;;;;;;;;;5.40;99.90;;;;;;4997219;28;19912;-73
2021/12/15 15:24:47;;;;;;;;;;;5.40;99.90;;;;;;5012368;28;19909;-74
2021/12/15 15:27:13;;;;;;;;;;;5.50;99.90;;;;;;4988233;28;20281;-74
2021/12/15 15:29:40;;;;;;;;;;;5.60;99.90;;;;;;5014365;28;19909;-74
2021/12/15 15:32:15;;;;;;;;;;;5.60;99.90;;;;;;5013754;28;19948;-74
2021/12/15 15:34:42;;;;;;;;;;;5.60;99.90;;;;;;5013978;28;19971;-74
2021/12/15 15:37:12;;;;;;;;;;;5.70;99.90;;;;;;4998040;28;19905;-77
2021/12/15 15:39:38;;;;;;;;;;;5.80;99.90;;;;;;5013746;28;19913;-76
2021/12/15 15:42:04;;;;;;;;;;;5.70;99.90;;;;;;4997589;28;19956;-77
2021/12/15 15:44:34;;;;;;;;;;;5.50;99.90;;;;;;5014502;28;20000;-76
2021/12/15 15:47:00;;;;;;;;;;;5.40;99.90;;;;;;5010090;28;19948;-76
2021/12/15 15:49:26;;;;;;;;;;;5.30;99.90;;;;;;5014263;28;20321;-75
2021/12/15 15:51:52;;;;;;;;;;;5.40;99.90;;;;;;5014624;28;19906;-75
2021/12/15 15:54:21;;;;;;;;;;;5.40;99.90;;;;;;5014343;28;19906;-76
2021/12/15 15:56:47;;;;;;;;;;;5.30;99.90;;;;;;4996903;28;19905;-76
2021/12/15 15:59:15;;;;;;;;;;;5.20;99.90;;;;;;4996166;28;19988;-75